Time;durP1;ratioP1;P1;durP2;ratioP2;P2;SDS_P1;SDS_P2;PMS_P1;PMS_P2;Temp;Humidity;BMP_temperature;BMP_pressure;BME280_temperature;BME280_humidity;BME280_pressure;Samples;Min_cycle;Max_cycle;Signal;HPM_P1;HPM_P2
2022/08/21 00:01:42;;;;;;;5.70;5.03;;;;;;;17.51;100.00;100830.72;5014926;28;21296;-80
2022/08/21 00:04:09;;;;;;;5.53;5.03;;;;;;;17.47;100.00;100830.94;5000215;28;20048;-81
2022/08/21 00:06:36;;;;;;;6.32;5.28;;;;;;;17.43;100.00;100835.56;5010490;28;20153;-81
2022/08/21 00:09:05;;;;;;;7.68;5.00;;;;;;;17.38;100.00;100827.75;5031831;28;20494;-80
2022/08/21 00:11:34;;;;;;;7.15;4.97;;;;;;;17.32;100.00;100827.16;5010631;28;21867;-80
2022/08/21 00:14:02;;;;;;;6.28;5.20;;;;;;;17.30;100.00;100821.88;4998554;28;20051;-81
2022/08/21 00:16:29;;;;;;;5.95;4.60;;;;;;;17.30;100.00;100821.88;5000293;28;20475;-80
2022/08/21 00:18:55;;;;;;;5.80;5.05;;;;;;;17.28;100.00;100829.09;5000788;28;20041;-80
2022/08/21 00:21:22;;;;;;;5.60;4.88;;;;;;;17.24;100.00;100830.19;5006452;28;20119;-80
2022/08/21 00:23:49;;;;;;;6.07;5.05;;;;;;;17.19;100.00;100832.19;5010032;28;20050;-80
2022/08/21 00:26:15;;;;;;;8.07;5.13;;;;;;;17.21;100.00;100819.63;4994685;28;20062;-80
2022/08/21 00:28:42;;;;;;;5.82;4.93;;;;;;;17.19;100.00;100831.34;5016153;28;20036;-80
2022/08/21 00:31:09;;;;;;;6.32;5.28;;;;;;;17.15;100.00;100827.91;5001221;28;20044;-80
2022/08/21 00:33:35;;;;;;;6.68;5.25;;;;;;;17.10;100.00;100828.13;4998075;28;20042;-80
2022/08/21 00:36:04;;;;;;;6.70;5.40;;;;;;;17.10;100.00;100832.63;5007529;28;20044;-80
2022/08/21 00:38:33;;;;;;;6.68;4.63;;;;;;;17.07;100.00;100827.44;4995296;28;20034;-81
2022/08/21 00:41:04;;;;;;;6.05;5.07;;;;;;;17.05;100.00;100826.59;5040525;28;20042;-81
2022/08/21 00:43:51;;;;;;;5.88;4.72;;;;;;;17.03;100.00;100823.16;5012778;28;20076;-80
2022/08/21 00:46:18;;;;;;;7.50;4.63;;;;;;;17.09;100.00;100823.75;4997324;28;20064;-80
2022/08/21 00:48:46;;;;;;;7.38;4.68;;;;;;;17.06;100.00;100823.84;5030193;28;20037;-79
2022/08/21 00:51:18;;;;;;;6.63;4.60;;;;;;;17.11;100.00;100818.31;4988241;28;20065;-80
2022/08/21 00:53:45;;;;;;;6.43;4.80;;;;;;;17.07;100.00;100804.25;5013267;28;20716;-80
2022/08/21 00:56:19;;;;;;;4.50;4.10;;;;;;;17.05;100.00;100791.91;5001504;28;20052;-80
2022/08/21 00:58:48;;;;;;;8.65;4.90;;;;;;;17.08;100.00;100791.78;5007881;28;20040;-80
2022/08/21 01:01:20;;;;;;;10.13;4.28;;;;;;;17.08;100.00;100784.63;4999444;28;20088;-80
2022/08/21 01:03:48;;;;;;;10.07;4.35;;;;;;;16.99;100.00;100789.53;5015199;28;20128;-80
2022/08/21 01:06:16;;;;;;;6.65;4.63;;;;;;;16.96;100.00;100789.66;5029814;28;20094;-80
2022/08/21 01:08:43;;;;;;;5.00;4.10;;;;;;;16.93;100.00;100784.47;5008701;28;20041;-81
2022/08/21 01:11:15;;;;;;;4.72;4.00;;;;;;;16.89;100.00;100786.38;4995202;28;20077;-80
2022/08/21 01:13:46;;;;;;;6.22;3.83;;;;;;;16.85;100.00;100787.47;5017716;28;20140;-81
2022/08/21 01:16:18;;;;;;;6.30;4.50;;;;;;;16.85;100.00;100793.66;5034494;28;20041;-79
2022/08/21 01:18:46;;;;;;;5.32;3.95;;;;;;;16.80;100.00;100793.00;5005582;28;20041;-79
2022/08/21 01:21:24;;;;;;;7.40;4.43;;;;;;;16.75;100.00;100796.81;5029471;28;20044;-79
2022/08/21 01:23:55;;;;;;;5.78;4.22;;;;;;;16.59;100.00;100791.25;5030492;28;20509;-79
2022/08/21 01:26:26;;;;;;;6.10;4.00;;;;;;;16.53;100.00;100797.69;4998139;28;20049;-80
2022/08/21 01:29:16;;;;;;;6.32;3.75;;;;;;;16.48;100.00;100793.47;4990049;28;20445;-80
2022/08/21 01:31:43;;;;;;;7.68;4.38;;;;;;;16.43;100.00;100791.03;5009082;28;20073;-80
2022/08/21 01:34:11;;;;;;;8.38;4.20;;;;;;;16.42;100.00;100791.09;5023400;28;20111;-80
2022/08/21 01:36:37;;;;;;;7.85;4.50;;;;;;;16.37;100.00;100795.75;4996695;28;20045;-80
2022/08/21 01:39:07;;;;;;;4.80;3.97;;;;;;;16.30;100.00;100793.34;4997779;28;20041;-80
2022/08/21 01:41:33;;;;;;;5.47;4.15;;;;;;;16.24;100.00;100793.63;5012232;28;20045;-80
2022/08/21 01:44:00;;;;;;;7.93;4.15;;;;;;;16.23;100.00;100796.34;5007187;28;20061;-80
2022/08/21 01:46:30;;;;;;;4.40;4.00;;;;;;;16.12;100.00;100803.91;5010858;28;20045;-80
2022/08/21 01:48:56;;;;;;;4.40;4.00;;;;;;;16.07;100.00;100801.44;5000885;28;20045;-81
2022/08/21 01:51:23;;;;;;;5.47;4.35;;;;;;;16.12;100.00;100804.75;4998176;28;20065;-80
2022/08/21 01:53:50;;;;;;;6.55;4.65;;;;;;;16.08;100.00;100805.84;5001845;28;20073;-80
2022/08/21 01:56:17;;;;;;;4.50;3.33;;;;;;;16.05;100.00;100805.94;5024012;28;20068;-80
2022/08/21 01:58:45;;;;;;;6.05;3.92;;;;;;;16.05;100.00;100806.81;4989081;28;20033;-79
2022/08/21 02:01:12;;;;;;;7.18;3.70;;;;;;;16.12;100.00;100812.75;5012330;28;20445;-80
2022/08/21 02:03:40;;;;;;;6.18;3.42;;;;;;;16.01;100.00;100812.34;5017025;28;20043;-80
2022/08/21 02:06:11;;;;;;;4.72;3.55;;;;;;;15.94;100.00;100821.50;5009690;28;20038;-80
2022/08/21 02:08:38;;;;;;;6.20;4.10;;;;;;;15.86;100.00;100808.50;4981801;28;20044;-79
2022/08/21 02:11:05;;;;;;;5.53;4.15;;;;;;;15.84;100.00;100818.34;4995902;28;20057;-80
2022/08/21 02:13:32;;;;;;;6.05;4.63;;;;;;;15.87;100.00;100820.00;4996522;28;20402;-79
2022/08/21 02:15:58;;;;;;;7.63;4.38;;;;;;;15.78;100.00;100813.25;5002270;28;20116;-80
2022/08/21 02:18:25;;;;;;;8.02;4.28;;;;;;;15.73;100.00;100807.25;5037176;28;20471;-79
2022/08/21 02:20:52;;;;;;;4.78;3.40;;;;;;;15.60;100.00;100798.84;5010540;28;20560;-80
2022/08/21 02:23:22;;;;;;;5.93;4.28;;;;;;;15.53;100.00;100810.63;5000595;28;20582;-80
2022/08/21 02:26:01;;;;;;;5.47;3.75;;;;;;;15.47;100.00;100814.44;5013633;28;20053;-81
2022/08/21 02:28:29;;;;;;;5.90;4.43;;;;;;;15.46;100.00;100819.78;5011424;28;20044;-80
2022/08/21 02:30:56;;;;;;;5.78;4.15;;;;;;;15.43;100.00;100814.59;5005287;28;20041;-79
2022/08/21 02:33:23;;;;;;;7.45;3.78;;;;;;;15.37;100.00;100813.03;5002786;28;20045;-79
2022/08/21 02:35:53;;;;;;;6.80;3.58;;;;;;;15.30;100.00;100808.88;5001757;28;20049;-80
2022/08/21 02:38:22;;;;;;;4.15;3.38;;;;;;;15.28;100.00;100813.38;5015400;28;20041;-80
2022/08/21 02:40:51;;;;;;;5.50;3.92;;;;;;;15.23;100.00;100817.16;5011499;28;20782;-80
2022/08/21 02:43:22;;;;;;;8.82;4.40;;;;;;;15.19;100.00;100811.06;5094423;22;20172;31
2022/08/21 02:45:49;;;;;;;5.57;3.88;;;;;;;15.16;100.00;100805.84;5002249;28;20042;-78
2022/08/21 02:48:21;;;;;;;4.78;3.40;;;;;;;15.07;100.00;100807.06;4976194;28;20100;-79
2022/08/21 02:50:52;;;;;;;5.70;3.90;;;;;;;15.04;100.00;100807.16;5006740;28;20054;-78
2022/08/21 02:53:19;;;;;;;5.10;3.80;;;;;;;15.00;100.00;100812.66;5000848;28;20596;-78
2022/08/21 02:55:49;;;;;;;5.78;3.80;;;;;;;14.93;100.00;100809.34;5007335;28;20109;-78
2022/08/21 02:58:25;;;;;;;6.18;4.18;;;;;;;14.92;100.00;100815.59;4998643;28;20041;-78
2022/08/21 03:00:52;;;;;;;6.38;3.80;;;;;;;14.88;100.00;100816.59;4991581;28;20069;-78
2022/08/21 03:03:20;;;;;;;9.27;4.15;;;;;;;14.86;100.00;100813.16;5014921;28;20049;-78
2022/08/21 03:05:47;;;;;;;8.27;3.85;;;;;;;14.80;100.00;100808.06;5007993;28;20103;-78
2022/08/21 03:08:14;;;;;;;5.97;3.58;;;;;;;14.78;100.00;100808.09;5010856;28;20100;-78
2022/08/21 03:10:44;;;;;;;5.35;3.40;;;;;;;14.74;100.00;100809.13;5002825;28;20057;-78
2022/08/21 03:13:11;;;;;;;5.38;3.97;;;;;;;14.69;100.00;100805.75;4994433;28;20071;-78
2022/08/21 03:15:38;;;;;;;4.57;3.75;;;;;;;14.66;100.00;100805.00;5010606;28;20065;-78
2022/08/21 03:18:05;;;;;;;5.75;3.90;;;;;;;14.65;100.00;100812.13;4979062;28;20050;-78
2022/08/21 03:20:33;;;;;;;4.43;3.85;;;;;;;14.63;100.00;100809.53;4982140;28;20452;-79
2022/08/21 03:23:00;;;;;;;4.60;3.72;;;;;;;14.64;100.00;100813.91;5009441;28;20045;-78
2022/08/21 03:25:28;;;;;;;4.00;3.50;;;;;;;14.65;100.00;100806.81;5009933;28;20161;-78
2022/08/21 03:28:09;;;;;;;6.53;4.00;;;;;;;14.62;100.00;100804.22;5001466;28;20038;-79
2022/08/21 03:30:40;;;;;;;4.63;3.80;;;;;;;14.61;100.00;100818.44;4990935;28;20034;-78
2022/08/21 03:33:07;;;;;;;5.00;4.28;;;;;;;14.61;100.00;100807.81;4999202;28;20049;-78
2022/08/21 03:35:33;;;;;;;5.97;3.85;;;;;;;14.65;100.00;100806.81;5006243;28;20051;-79
2022/08/21 03:38:00;;;;;;;6.43;4.40;;;;;;;14.63;100.00;100817.50;5001122;28;20125;-78
2022/08/21 03:40:27;;;;;;;4.50;4.10;;;;;;;14.62;100.00;100809.56;5008919;28;20052;-79
2022/08/21 03:42:53;;;;;;;4.80;3.92;;;;;;;14.66;100.00;100807.66;4990861;28;20819;-79
2022/08/21 03:45:21;;;;;;;6.32;3.65;;;;;;;14.61;100.00;100808.69;4996152;28;20037;-78
2022/08/21 03:47:59;;;;;;;6.55;4.57;;;;;;;14.59;100.00;100815.84;4981228;28;20058;-78
2022/08/21 03:50:30;;;;;;;6.50;4.03;;;;;;;14.58;100.00;100810.59;4997242;28;20049;-78
2022/08/21 03:52:57;;;;;;;6.07;4.05;;;;;;;14.56;100.00;100808.00;4993450;28;20398;-79
2022/08/21 03:55:25;;;;;;;6.57;4.30;;;;;;;14.52;100.00;100816.13;4998287;28;20620;-78
2022/08/21 03:57:52;;;;;;;4.22;3.83;;;;;;;14.49;100.00;100813.56;4994073;28;20046;-79
2022/08/21 04:00:20;;;;;;;4.65;4.20;;;;;;;14.49;100.00;100809.13;5012551;28;20645;-78
2022/08/21 04:02:47;;;;;;;4.78;3.80;;;;;;;14.49;100.00;100810.91;4992474;28;20045;-78
2022/08/21 04:05:26;;;;;;;7.03;4.32;;;;;;;14.48;100.00;100814.50;5025688;28;20053;-78
2022/08/21 04:07:58;;;;;;;4.53;4.13;;;;;;;14.52;100.00;100822.28;4983627;28;20502;-78
2022/08/21 04:10:27;;;;;;;5.68;4.30;;;;;;;14.53;100.00;100816.06;4992366;28;20037;-78
2022/08/21 04:12:55;;;;;;;6.43;4.70;;;;;;;14.60;100.00;100811.41;5006445;28;20048;-78
2022/08/21 04:15:23;;;;;;;6.03;4.47;;;;;;;14.58;100.00;100814.13;5013719;28;20084;-78
2022/08/21 04:17:50;;;;;;;5.18;4.13;;;;;;;14.60;100.00;100816.72;4999480;28;20501;-78
2022/08/21 04:20:18;;;;;;;7.65;4.75;;;;;;;14.64;100.00;100821.91;4980220;28;20077;-80
2022/08/21 04:22:50;;;;;;;6.88;4.53;;;;;;;14.66;100.00;100820.97;4992903;28;20057;-80
2022/08/21 04:25:19;;;;;;;6.93;4.65;;;;;;;14.68;100.00;100824.44;4989940;28;20101;-80
2022/08/21 04:27:45;;;;;;;8.88;5.30;;;;;;;14.69;100.00;100829.69;4989914;28;20050;-79
2022/08/21 04:30:14;;;;;;;7.03;4.75;;;;;;;14.74;100.00;100829.56;4979392;28;20052;-79
2022/08/21 04:32:46;;;;;;;6.13;4.55;;;;;;;14.75;100.00;100815.31;4994200;28;20426;-79
2022/08/21 04:35:17;;;;;;;5.03;4.13;;;;;;;14.79;100.00;100819.59;5010820;28;20065;-79
2022/08/21 04:37:43;;;;;;;6.60;5.13;;;;;;;14.80;100.00;100818.69;5010707;28;20049;-79
2022/08/21 04:40:13;;;;;;;8.75;5.20;;;;;;;14.86;100.00;100823.78;5003293;28;20490;-79
2022/08/21 04:42:49;;;;;;;5.53;4.32;;;;;;;14.85;100.00;100830.91;5004278;28;20041;-79
2022/08/21 04:45:28;;;;;;;7.47;4.78;;;;;;;14.94;100.00;100827.03;5001715;28;20277;-79
2022/08/21 04:47:57;;;;;;;5.32;4.53;;;;;;;14.95;100.00;100823.44;4991371;28;20113;-79
2022/08/21 04:50:38;;;;;;;5.03;3.95;;;;;;;15.00;100.00;100818.84;5008842;28;20129;-80
2022/08/21 04:53:14;;;;;;;6.22;4.30;;;;;;;15.06;100.00;100818.63;5011664;28;20042;-79
2022/08/21 04:55:41;;;;;;;8.63;4.70;;;;;;;15.09;100.00;100822.97;4980442;28;20494;-79
2022/08/21 04:58:10;;;;;;;5.63;3.95;;;;;;;15.13;100.00;100824.56;5002623;28;20664;-79
2022/08/21 05:00:37;;;;;;;7.80;4.57;;;;;;;15.16;100.00;100822.69;5002183;28;20052;-79
2022/08/21 05:03:05;;;;;;;6.35;3.80;;;;;;;15.19;100.00;100827.03;4989189;28;20041;-80
2022/08/21 05:05:32;;;;;;;5.22;3.85;;;;;;;15.19;100.00;100827.03;4993135;28;20038;-79
2022/08/21 05:08:01;;;;;;;5.07;4.00;;;;;;;15.24;100.00;100824.19;4993901;28;20041;-79
2022/08/21 05:10:28;;;;;;;5.95;4.22;;;;;;;15.30;100.00;100830.19;4981196;28;20059;-79
2022/08/21 05:12:55;;;;;;;4.88;3.58;;;;;;;15.35;100.00;100822.88;4994038;28;20128;-79
2022/08/21 05:15:22;;;;;;;5.57;4.07;;;;;;;15.41;100.00;100829.75;4996258;28;20446;-80
2022/08/21 05:17:50;;;;;;;6.25;4.15;;;;;;;15.39;100.00;100826.31;4983147;28;20054;-80
2022/08/21 05:20:26;;;;;;;4.05;3.63;;;;;;;15.40;100.00;100823.56;5005623;28;20073;-79
2022/08/21 05:22:52;;;;;;;4.60;3.88;;;;;;;15.40;100.00;100828.03;4994804;28;20041;-79
2022/08/21 05:25:19;;;;;;;6.45;3.92;;;;;;;15.44;100.00;100821.66;4996963;28;20486;-79
2022/08/21 05:27:49;;;;;;;6.18;4.22;;;;;;;15.52;100.00;100824.88;5015512;28;20057;-79
2022/08/21 05:30:18;;;;;;;4.38;3.20;;;;;;;15.56;100.00;100829.19;5012757;28;20057;-79
2022/08/21 05:32:45;;;;;;;6.32;4.10;;;;;;;15.64;100.00;100828.94;4976207;28;20029;-78
2022/08/21 05:35:13;;;;;;;6.38;3.58;;;;;;;15.71;100.00;100827.72;4997451;28;20046;-79
2022/08/21 05:37:40;;;;;;;5.85;3.90;;;;;;;15.76;100.00;100837.28;4996181;28;20034;-79
2022/08/21 05:40:08;;;;;;;6.18;3.60;;;;;;;15.81;100.00;100836.22;5006403;28;20038;-79
2022/08/21 05:42:53;;;;;;;4.72;3.83;;;;;;;15.83;100.00;100839.72;5014860;28;20067;-79
2022/08/21 05:45:23;;;;;;;4.97;3.30;;;;;;;15.90;100.00;100835.91;4966416;28;20056;-79
2022/08/21 05:48:14;;;;;;;6.40;3.40;;;;;;;15.98;100.00;100845.31;4992950;28;20114;-79
2022/08/21 05:50:42;;;;;;;4.43;3.58;;;;;;;16.00;100.00;100838.13;5015250;28;20543;-79
2022/08/21 05:53:10;;;;;;;4.45;3.30;;;;;;;16.11;100.00;100844.81;5025348;28;20037;-80
2022/08/21 05:55:37;;;;;;;4.05;3.35;;;;;;;16.15;100.00;100839.31;4986699;28;20487;-79
2022/08/21 05:58:11;;;;;;;;;;;;;;;16.23;100.00;100842.53;4981865;28;20046;-80
2022/08/21 06:00:37;;;;;;;4.90;3.65;;;;;;;16.32;100.00;100839.50;5012672;28;20293;-80
2022/08/21 06:03:04;;;;;;;6.30;3.92;;;;;;;16.39;100.00;100855.22;5014943;28;20046;-80
2022/08/21 06:05:31;;;;;;;6.35;4.22;;;;;;;16.45;100.00;100852.28;4979824;28;20052;-80
2022/08/21 06:08:04;;;;;;;4.47;2.97;;;;;;;16.48;100.00;100852.16;4987451;28;20030;-80
2022/08/21 06:10:31;;;;;;;4.40;3.13;;;;;;;16.53;100.00;100859.03;5012549;28;20052;-79
2022/08/21 06:12:57;;;;;;;3.90;3.20;;;;;;;16.59;100.00;100844.59;5015651;28;20076;-79
2022/08/21 06:15:26;;;;;;;6.68;3.30;;;;;;;16.70;100.00;100846.81;4990557;28;20034;-80
2022/08/21 06:17:53;;;;;;;5.28;3.53;;;;;;;16.79;100.00;100857.97;5005113;28;20099;-80
2022/08/21 06:20:20;;;;;;;5.15;3.13;;;;;;;16.77;100.00;100853.63;4996056;28;20042;-80
2022/08/21 06:22:47;;;;;;;7.45;3.40;;;;;;;16.86;100.00;100851.44;4993402;28;20583;-79
2022/08/21 06:25:14;;;;;;;7.50;3.35;;;;;;;16.89;100.00;100853.09;5015195;28;20046;-80
2022/08/21 06:27:41;;;;;;;5.78;3.00;;;;;;;16.91;100.00;100847.72;5006617;28;20437;-80
2022/08/21 06:30:09;;;;;;;6.30;2.50;;;;;;;16.99;100.00;100848.25;5013871;28;20034;-80
2022/08/21 06:32:36;;;;;;;7.45;2.85;;;;;;;17.04;100.00;100855.09;4980617;28;20041;-80
2022/08/21 06:35:05;;;;;;;5.78;2.88;;;;;;;17.14;100.00;100858.22;4981992;28;20041;-80
2022/08/21 06:37:32;;;;;;;10.35;2.67;;;;;;;17.21;100.00;100854.34;4995630;28;21717;-80
2022/08/21 06:39:59;;;;;;;6.63;3.25;;;;;;;17.39;100.00;100858.84;4982315;28;20130;-80
2022/08/21 06:42:27;;;;;;;7.47;2.83;;;;;;;17.49;100.00;100861.09;4991194;28;20050;-79
2022/08/21 06:44:54;;;;;;;7.80;2.95;;;;;;;17.62;100.00;100847.13;5001038;28;20561;-80
2022/08/21 06:47:21;;;;;;;8.35;2.67;;;;;;;17.70;100.00;100853.00;4990302;28;20038;-80
2022/08/21 06:49:48;;;;;;;6.00;2.58;;;;;;;17.87;100.00;100846.88;4995362;28;20037;-80
2022/08/21 06:52:15;;;;;;;3.97;2.65;;;;;;;18.05;100.00;100849.59;4995359;28;20038;-79
2022/08/21 06:54:42;;;;;;;5.43;2.70;;;;;;;18.07;100.00;100853.91;4981659;28;20066;-79
2022/08/21 06:57:09;;;;;;;4.38;2.38;;;;;;;18.09;100.00;100845.84;4981295;28;20042;-80
2022/08/21 06:59:36;;;;;;;5.03;2.47;;;;;;;18.18;100.00;100850.75;4979880;28;20462;-80
2022/08/21 07:02:03;;;;;;;5.90;2.72;;;;;;;18.35;100.00;100852.59;5004512;28;20678;-80
2022/08/21 07:04:30;;;;;;;5.32;2.45;;;;;;;18.48;100.00;100851.88;4969596;28;20038;-80
2022/08/21 07:06:57;;;;;;;5.93;2.45;;;;;;;18.48;100.00;100854.56;5014704;28;20450;-79
2022/08/21 07:09:24;;;;;;;3.83;2.50;;;;;;;18.49;100.00;100852.75;4989380;28;20399;-79
2022/08/21 07:11:52;;;;;;;5.32;2.72;;;;;;;18.49;100.00;100855.41;4997356;28;20081;-79
2022/08/21 07:14:19;;;;;;;4.38;2.67;;;;;;;18.59;100.00;100859.38;4999271;28;20075;-80
2022/08/21 07:16:47;;;;;;;3.85;2.40;;;;;;;18.58;100.00;100849.59;5015196;28;20034;-79
2022/08/21 07:19:14;;;;;;;5.10;2.20;;;;;;;18.63;100.00;100857.41;4998291;28;20245;-79
2022/08/21 07:21:41;;;;;;;5.95;2.80;;;;;;;18.66;100.00;100863.50;4976975;28;20455;-80
2022/08/21 07:24:08;;;;;;;4.43;2.58;;;;;;;18.55;100.00;100855.97;4978989;28;20076;-79
2022/08/21 07:26:35;;;;;;;2.90;2.05;;;;;;;18.69;100.00;100851.78;4983636;28;20057;-79
2022/08/21 07:29:03;;;;;;;3.50;2.40;;;;;;;18.91;100.00;100863.09;4985781;28;20042;-79
2022/08/21 07:31:30;;;;;;;4.80;2.60;;;;;;;19.08;100.00;100863.09;4985440;28;20057;-79
2022/08/21 07:33:57;;;;;;;6.10;2.70;;;;;;;19.23;100.00;100857.88;4996524;28;20052;-79
2022/08/21 07:36:24;;;;;;;7.53;2.50;;;;;;;19.40;100.00;100860.50;4997165;28;20133;-79
2022/08/21 07:38:51;;;;;;;3.47;1.95;;;;;;;19.51;100.00;100862.63;4992444;28;20222;-79
2022/08/21 07:41:22;;;;;;;8.82;2.70;;;;;;;19.56;100.00;100860.56;4988200;28;20535;-79
2022/08/21 07:43:49;;;;;;;5.38;2.65;;;;;;;19.53;100.00;100858.91;5005415;28;20069;-79
2022/08/21 07:46:19;;;;;;;7.90;2.25;;;;;;;19.50;98.43;100860.88;5010015;28;20049;-79
2022/08/21 07:48:46;;;;;;;5.07;2.13;;;;;;;19.59;100.00;100850.59;4994766;28;20392;-80
2022/08/21 07:51:14;;;;;;;4.45;2.03;;;;;;;19.66;97.57;100851.94;5010931;28;20084;-79
2022/08/21 07:53:42;;;;;;;3.15;2.00;;;;;;;19.71;100.00;100848.16;4976842;28;20077;-78
2022/08/21 07:56:10;;;;;;;3.38;2.17;;;;;;;20.03;99.75;100863.31;4992081;28;20518;-79
2022/08/21 07:58:37;;;;;;;4.63;2.10;;;;;;;20.09;94.93;100859.41;4980451;28;20056;-80
2022/08/21 08:01:05;;;;;;;6.18;2.85;;;;;;;19.99;92.09;100856.38;4978232;28;20101;-80
2022/08/21 08:03:33;;;;;;;3.50;1.92;;;;;;;20.05;93.02;100852.50;4977516;28;20053;-79
2022/08/21 08:05:59;;;;;;;3.50;2.22;;;;;;;20.24;94.77;100853.16;4980944;28;20046;-79
2022/08/21 08:08:27;;;;;;;5.72;2.08;;;;;;;20.34;90.42;100853.50;5013663;28;20052;-80
2022/08/21 08:10:56;;;;;;;2.80;1.52;;;;;;;20.36;89.64;100854.31;4991923;28;20641;-80
2022/08/21 08:13:23;;;;;;;5.68;2.58;;;;;;;20.43;88.56;100850.28;4983342;28;20041;-81
2022/08/21 08:15:50;;;;;;;6.13;2.05;;;;;;;20.62;91.07;100856.34;4977519;28;20102;-81
2022/08/21 08:18:17;;;;;;;5.32;2.55;;;;;;;20.44;84.65;100852.94;4993436;28;20056;-81
2022/08/21 08:20:45;;;;;;;4.53;1.83;;;;;;;20.56;84.67;100843.28;4995631;28;20093;-80
2022/08/21 08:23:13;;;;;;;3.17;1.80;;;;;;;20.58;83.41;100846.72;5007562;28;20042;-80
2022/08/21 08:25:40;;;;;;;4.45;2.03;;;;;;;20.73;85.58;100848.50;4984807;28;20040;-80
2022/08/21 08:28:08;;;;;;;5.72;2.20;;;;;;;20.90;85.01;100858.25;5022616;28;20034;-81
2022/08/21 08:30:44;;;;;;;4.47;1.88;;;;;;;21.08;85.49;100853.56;4980288;28;20042;-80
2022/08/21 08:33:11;;;;;;;3.60;2.10;;;;;;;21.13;79.72;100843.41;5000959;28;20578;-80
2022/08/21 08:35:39;;;;;;;3.80;1.90;;;;;;;21.19;81.29;100855.59;5009651;28;20037;-80
2022/08/21 08:38:08;;;;;;;2.65;1.60;;;;;;;21.29;78.71;100854.13;5006400;28;20043;-81
2022/08/21 08:41:12;;;;;;;3.92;1.95;;;;;;;21.25;78.95;100856.09;5002917;28;20026;-82
2022/08/21 08:43:41;;;;;;;5.30;2.25;;;;;;;21.20;77.71;100850.16;5001028;28;20038;-80
2022/08/21 08:46:14;;;;;;;3.45;1.63;;;;;;;21.03;77.52;100863.75;4983979;28;20045;-79
2022/08/21 08:48:58;;;;;;;2.95;1.83;;;;;;;20.90;77.17;100863.63;4998307;28;20038;-80
2022/08/21 08:51:35;;;;;;;4.35;1.77;;;;;;;21.11;80.78;100863.28;4993572;28;20402;-79
2022/08/21 08:54:09;;;;;;;4.03;1.60;;;;;;;21.28;79.99;100855.09;5016038;28;20084;-80
2022/08/21 08:56:36;;;;;;;4.38;1.88;;;;;;;21.48;81.91;100854.69;4998908;28;20495;-80
2022/08/21 08:59:31;;;;;;;3.88;2.03;;;;;;;21.64;77.77;100846.53;4996402;28;20514;-82
2022/08/21 09:01:59;;;;;;;2.80;1.75;;;;;;;21.75;72.34;100845.84;4990173;28;20485;-79
2022/08/21 09:04:28;;;;;;;5.25;2.45;;;;;;;21.85;71.00;100849.66;4974900;28;20061;-80
2022/08/21 09:07:01;;;;;;;3.28;1.60;;;;;;;21.82;71.51;100849.88;4992621;28;20045;-80
2022/08/21 09:10:00;;;;;;;6.53;2.22;;;;;;;21.72;68.38;100838.84;4996057;28;20041;-81
2022/08/21 09:12:41;;;;;;;4.78;1.95;;;;;;;21.66;67.66;100847.28;4977231;28;20621;-80
2022/08/21 09:15:24;;;;;;;3.97;1.85;;;;;;;21.71;70.12;100845.19;5015917;28;20049;-81
2022/08/21 09:18:00;;;;;;;3.78;2.03;;;;;;;;;;4984556;28;20049;-79
2022/08/21 09:20:48;;;;;;;3.50;2.08;;;;;;;21.98;68.70;100847.91;5009302;28;20041;-80
2022/08/21 09:23:31;;;;;;;4.05;1.92;;;;;;;21.97;66.29;100843.50;4990805;28;20064;-80
2022/08/21 09:26:04;;;;;;;3.78;1.92;;;;;;;21.98;68.12;100839.84;4985054;28;20050;-80
2022/08/21 09:28:33;;;;;;;3.35;2.15;;;;;;;21.89;68.66;100843.13;4976604;28;20042;-80
2022/08/21 09:31:02;;;;;;;2.38;1.80;;;;;;;22.06;69.57;100840.19;4994149;28;20092;-80
2022/08/21 09:33:29;;;;;;;6.28;1.77;;;;;;;22.19;66.86;100838.44;5004104;28;20448;-79
2022/08/21 09:35:59;;;;;;;4.03;2.05;;;;;;;22.34;69.24;100844.66;4974156;28;20057;-80
2022/08/21 09:38:32;;;;;;;4.63;1.80;;;;;;;22.45;64.86;100842.13;5009644;28;20146;-79
2022/08/21 09:41:05;;;;;;;2.17;1.52;;;;;;;22.32;65.35;100840.34;5011279;28;20088;-81
2022/08/21 09:43:33;;;;;;;4.57;1.77;;;;;;;22.54;66.18;100839.78;4996912;28;20050;-79
2022/08/21 09:46:20;;;;;;;4.22;1.70;;;;;;;22.46;62.43;100835.78;4977560;28;20053;-81
2022/08/21 09:48:50;;;;;;;1.42;1.33;;;;;;;22.44;65.51;100844.91;4991697;28;20068;-79
2022/08/21 09:51:22;;;;;;;4.22;2.08;;;;;;;22.52;63.22;100841.69;4980361;28;20104;-80
2022/08/21 09:53:51;;;;;;;6.38;1.95;;;;;;;22.47;63.98;100850.09;4996251;28;20046;-79
2022/08/21 09:59:30;;;;;;;2.30;1.40;;;;;;;22.48;64.83;100839.22;4981201;28;20066;-81
2022/08/21 10:02:35;;;;;;;5.55;1.95;;;;;;;22.44;63.29;100835.00;4977704;28;20053;-79
2022/08/21 10:05:17;;;;;;;3.38;1.73;;;;;;;22.68;64.99;100842.38;4951579;28;20575;-81
2022/08/21 10:07:44;;;;;;;4.07;1.80;;;;;;;22.86;64.13;100841.16;4996392;28;20096;-80
2022/08/21 10:10:22;;;;;;;4.82;1.90;;;;;;;22.88;61.70;100843.75;5004285;28;20038;-79
2022/08/21 10:13:15;;;;;;;3.45;1.80;;;;;;;22.88;62.72;100839.25;4993221;28;20050;-80
2022/08/21 10:16:14;;;;;;;4.03;1.83;;;;;;;22.89;62.98;100837.41;5002559;28;20050;-80
2022/08/21 10:18:44;;;;;;;2.85;1.60;;;;;;;22.88;61.05;100841.94;5011275;28;20034;-79
2022/08/21 10:21:38;;;;;;;2.42;1.70;;;;;;;22.87;60.47;100842.91;4990338;28;20031;-78
2022/08/21 10:24:10;;;;;;;3.03;1.60;;;;;;;22.79;59.99;100838.97;5000433;28;20095;-80
2022/08/21 10:27:19;;;;;;;3.88;1.65;;;;;;;22.99;63.13;100844.72;4983842;28;20056;-80
2022/08/21 10:29:52;;;;;;;2.13;1.70;;;;;;;22.99;61.06;100838.50;5000461;28;20672;-78
2022/08/21 10:32:59;;;;;;;4.10;1.80;;;;;;;23.08;63.30;100851.31;4988365;28;20069;-80
2022/08/21 10:35:32;;;;;;;2.53;1.63;;;;;;;23.19;60.47;100845.16;4961894;28;20039;-80
2022/08/21 10:38:21;;;;;;;4.80;2.33;;;;;;;23.17;61.09;100841.72;4992977;28;20455;-81
2022/08/21 10:41:44;;;;;;;3.20;2.10;;;;;;;23.43;61.45;100846.13;5002829;28;20046;-79
2022/08/21 10:44:45;;;;;;;2.90;1.83;;;;;;;23.57;61.36;100837.94;4996886;28;20392;-79
2022/08/21 10:47:20;;;;;;;6.43;2.15;;;;;;;23.74;56.05;100836.75;4999214;28;20431;-80
2022/08/21 10:50:19;;;;;;;10.73;2.13;;;;;;;23.73;57.85;100837.72;4973626;28;20038;-79
2022/08/21 10:53:29;;;;;;;1.90;1.70;;;;;;;23.74;54.96;100839.44;5001068;28;20038;-79
2022/08/21 10:56:05;;;;;;;3.75;1.92;;;;;;;23.83;58.54;100843.31;4960331;28;20061;-79
2022/08/21 10:58:46;;;;;;;4.28;2.22;;;;;;;23.69;53.49;100838.91;4994363;28;20045;-79
2022/08/21 11:01:19;;;;;;;2.65;1.95;;;;;;;23.57;55.68;100835.22;5006060;28;20546;-79
2022/08/21 11:03:51;;;;;;;3.55;1.73;;;;;;;23.66;56.00;100843.66;4995142;28;20038;-79
2022/08/21 11:06:46;;;;;;;3.63;2.22;;;;;;;23.61;56.40;100846.69;4978085;28;20038;-79
2022/08/21 11:15:57;;;;;;;3.92;2.25;;;;;;;23.63;55.61;100841.16;5407169;23;20123;-77
2022/08/21 11:18:40;;;;;;;4.70;2.28;;;;;;;23.72;58.95;100848.63;4941534;29;20055;-78
2022/08/21 11:21:48;;;;;;;4.53;2.00;;;;;;;23.49;54.43;100837.63;4917891;29;20103;-78
2022/08/21 11:24:39;;;;;;;4.70;2.00;;;;;;;23.49;55.42;100843.00;4932813;29;20119;-78
2022/08/21 11:27:23;;;;;;;3.38;1.85;;;;;;;23.43;58.31;100851.53;4928934;29;20040;-80
2022/08/21 11:29:55;;;;;;;3.70;2.03;;;;;;;23.39;55.62;100841.94;4933922;29;20111;-80
2022/08/21 11:32:41;;;;;;;4.97;1.85;;;;;;;23.51;55.22;100841.06;4909139;29;20074;-79
2022/08/21 11:35:29;;;;;;;3.33;2.13;;;;;;;23.49;55.65;100843.00;4920793;29;20394;-80
2022/08/21 11:38:18;;;;;;;5.82;1.65;;;;;;;23.43;55.90;100827.25;4910251;29;20047;-79
2022/08/21 11:40:49;;;;;;;4.85;2.03;;;;;;;23.63;56.11;100835.78;4935509;29;20402;-80
2022/08/21 11:43:30;;;;;;;2.65;2.00;;;;;;;23.58;54.73;100833.41;4929171;29;20581;-78
2022/08/21 11:46:22;;;;;;;5.10;2.15;;;;;;;23.74;56.14;100834.03;4915219;29;20106;-79
2022/08/21 11:49:06;;;;;;;3.90;2.03;;;;;;;23.58;52.57;100839.66;4921809;29;20143;-77
2022/08/21 11:51:35;;;;;;;;;;;;;;;23.75;54.49;100841.16;4921096;29;20424;-77
2022/08/21 11:54:07;;;;;;;2.67;1.83;;;;;;;24.00;52.25;100847.47;4928971;29;19926;-80